Terminal Aerodrome Forecast
Issued by NWS

Home | Current Version | Previous Version | Text Only | Print | Product List | Glossary Off
Versions: 1 2 3 4 5 6 7 8 9 10 11 12 13 14 15 16 17 18 19 20 21 22 23 24 25 26 27 28 29 30 31 32 33 34 35

000
FTUS43 KLOT 242209 AAC
TAFORD
TAF AMD
KORD 242209Z 2422/2524 07010KT P6SM VCSH FEW045 OVC070
     FM250000 07012KT P6SM -SHRA BKN050
      TEMPO 2500/2503 4SM -RA SCT025 OVC035
     FM250300 09012KT P6SM VCSH OVC045
     FM251400 09015G20KT 5SM -RA BR OVC020
     FM251700 08016G22KT 3SM RA BR OVC007
     FM252200 06013KT 6SM -RA OVC008=

USA.gov is the U.S. government's official web portal to all federal, state and local government web resources and services.